sensor_id;sensor_type;location;lat;lon;timestamp;P1;durP1;ratioP1;P2;durP2;ratioP2
20000;SDS011;10161;41.188;-8.642;2023-07-02T00:00:12;6.80;;;4.03;;
20000;SDS011;10161;41.188;-8.642;2023-07-02T00:02:40;4.77;;;3.70;;
20000;SDS011;10161;41.188;-8.642;2023-07-02T00:05:08;4.90;;;3.50;;
20000;SDS011;10161;41.188;-8.642;2023-07-02T00:07:35;4.47;;;4.03;;
20000;SDS011;10161;41.188;-8.642;2023-07-02T00:10:03;5.77;;;3.70;;
20000;SDS011;10161;41.188;-8.642;2023-07-02T00:12:31;3.70;;;3.13;;
20000;SDS011;10161;41.188;-8.642;2023-07-02T00:14:58;5.20;;;3.23;;
20000;SDS011;10161;41.188;-8.642;2023-07-02T00:17:26;5.23;;;3.87;;
20000;SDS011;10161;41.188;-8.642;2023-07-02T00:19:53;4.17;;;3.77;;
20000;SDS011;10161;41.188;-8.642;2023-07-02T00:22:20;5.07;;;4.13;;
20000;SDS011;10161;41.188;-8.642;2023-07-02T00:24:47;5.33;;;4.17;;
20000;SDS011;10161;41.188;-8.642;2023-07-02T00:27:16;6.60;;;4.17;;
20000;SDS011;10161;41.188;-8.642;2023-07-02T00:29:43;5.47;;;4.40;;
20000;SDS011;10161;41.188;-8.642;2023-07-02T00:32:11;7.53;;;4.73;;
20000;SDS011;10161;41.188;-8.642;2023-07-02T00:34:39;6.53;;;4.53;;
20000;SDS011;10161;41.188;-8.642;2023-07-02T00:37:06;6.10;;;4.17;;
20000;SDS011;10161;41.188;-8.642;2023-07-02T00:39:33;5.83;;;4.40;;
20000;SDS011;10161;41.188;-8.642;2023-07-02T00:42:02;5.77;;;4.10;;
20000;SDS011;10161;41.188;-8.642;2023-07-02T00:44:29;6.57;;;4.03;;
20000;SDS011;10161;41.188;-8.642;2023-07-02T00:46:57;4.50;;;3.50;;
20000;SDS011;10161;41.188;-8.642;2023-07-02T00:49:24;6.40;;;4.00;;
20000;SDS011;10161;41.188;-8.642;2023-07-02T00:51:53;4.77;;;3.67;;
20000;SDS011;10161;41.188;-8.642;2023-07-02T00:54:20;7.67;;;4.30;;
20000;SDS011;10161;41.188;-8.642;2023-07-02T00:56:47;7.47;;;3.87;;
20000;SDS011;10161;41.188;-8.642;2023-07-02T00:59:14;6.33;;;4.27;;
20000;SDS011;10161;41.188;-8.642;2023-07-02T01:01:42;7.80;;;4.33;;
20000;SDS011;10161;41.188;-8.642;2023-07-02T01:04:16;7.10;;;4.50;;
20000;SDS011;10161;41.188;-8.642;2023-07-02T01:06:43;5.23;;;4.37;;
20000;SDS011;10161;41.188;-8.642;2023-07-02T01:09:12;6.57;;;4.47;;
20000;SDS011;10161;41.188;-8.642;2023-07-02T01:11:40;5.30;;;3.97;;
20000;SDS011;10161;41.188;-8.642;2023-07-02T01:14:10;4.93;;;4.20;;
20000;SDS011;10161;41.188;-8.642;2023-07-02T01:16:39;6.10;;;4.13;;
20000;SDS011;10161;41.188;-8.642;2023-07-02T01:19:11;7.00;;;3.80;;
20000;SDS011;10161;41.188;-8.642;2023-07-02T01:21:40;6.27;;;3.97;;
20000;SDS011;10161;41.188;-8.642;2023-07-02T01:24:07;5.27;;;3.83;;
20000;SDS011;10161;41.188;-8.642;2023-07-02T01:26:34;5.40;;;3.93;;
20000;SDS011;10161;41.188;-8.642;2023-07-02T01:29:12;5.57;;;4.23;;
20000;SDS011;10161;41.188;-8.642;2023-07-02T01:31:42;4.70;;;3.80;;
20000;SDS011;10161;41.188;-8.642;2023-07-02T01:34:10;5.13;;;3.60;;
20000;SDS011;10161;41.188;-8.642;2023-07-02T01:36:37;7.03;;;4.20;;
20000;SDS011;10161;41.188;-8.642;2023-07-02T01:39:06;5.30;;;3.80;;
20000;SDS011;10161;41.188;-8.642;2023-07-02T01:41:36;4.73;;;3.63;;
20000;SDS011;10161;41.188;-8.642;2023-07-02T01:44:08;4.37;;;3.73;;
20000;SDS011;10161;41.188;-8.642;2023-07-02T01:46:35;5.30;;;4.03;;
20000;SDS011;10161;41.188;-8.642;2023-07-02T01:49:02;7.13;;;3.83;;
20000;SDS011;10161;41.188;-8.642;2023-07-02T01:51:29;5.67;;;3.97;;
20000;SDS011;10161;41.188;-8.642;2023-07-02T01:53:56;5.43;;;3.90;;
20000;SDS011;10161;41.188;-8.642;2023-07-02T01:56:25;4.67;;;3.90;;
20000;SDS011;10161;41.188;-8.642;2023-07-02T01:58:51;5.57;;;3.70;;
20000;SDS011;10161;41.188;-8.642;2023-07-02T02:01:18;5.57;;;3.80;;
20000;SDS011;10161;41.188;-8.642;2023-07-02T02:03:45;6.23;;;3.80;;
20000;SDS011;10161;41.188;-8.642;2023-07-02T02:06:12;5.43;;;4.10;;
20000;SDS011;10161;41.188;-8.642;2023-07-02T02:08:39;5.37;;;3.50;;
20000;SDS011;10161;41.188;-8.642;2023-07-02T02:11:07;4.27;;;3.37;;
20000;SDS011;10161;41.188;-8.642;2023-07-02T02:13:36;6.03;;;3.90;;
20000;SDS011;10161;41.188;-8.642;2023-07-02T02:16:03;5.20;;;3.40;;
20000;SDS011;10161;41.188;-8.642;2023-07-02T02:18:30;6.23;;;3.30;;
20000;SDS011;10161;41.188;-8.642;2023-07-02T02:20:58;6.03;;;3.67;;
20000;SDS011;10161;41.188;-8.642;2023-07-02T02:23:25;6.07;;;4.17;;
20000;SDS011;10161;41.188;-8.642;2023-07-02T02:25:52;6.23;;;3.90;;
20000;SDS011;10161;41.188;-8.642;2023-07-02T02:28:19;5.77;;;3.73;;
20000;SDS011;10161;41.188;-8.642;2023-07-02T02:30:49;5.10;;;3.40;;
20000;SDS011;10161;41.188;-8.642;2023-07-02T02:33:17;4.70;;;3.90;;
20000;SDS011;10161;41.188;-8.642;2023-07-02T02:35:43;5.53;;;3.43;;
20000;SDS011;10161;41.188;-8.642;2023-07-02T02:38:11;4.60;;;3.40;;
20000;SDS011;10161;41.188;-8.642;2023-07-02T02:40:39;4.70;;;3.10;;
20000;SDS011;10161;41.188;-8.642;2023-07-02T02:43:06;8.37;;;4.03;;
20000;SDS011;10161;41.188;-8.642;2023-07-02T02:45:33;5.57;;;3.93;;
20000;SDS011;10161;41.188;-8.642;2023-07-02T02:48:01;4.87;;;3.50;;
20000;SDS011;10161;41.188;-8.642;2023-07-02T02:50:30;4.90;;;3.57;;
20000;SDS011;10161;41.188;-8.642;2023-07-02T02:52:57;5.00;;;3.30;;
20000;SDS011;10161;41.188;-8.642;2023-07-02T02:55:24;3.87;;;3.40;;
20000;SDS011;10161;41.188;-8.642;2023-07-02T02:57:53;6.23;;;3.97;;
20000;SDS011;10161;41.188;-8.642;2023-07-02T03:00:20;5.97;;;4.10;;
20000;SDS011;10161;41.188;-8.642;2023-07-02T03:02:48;4.80;;;3.60;;
20000;SDS011;10161;41.188;-8.642;2023-07-02T03:05:16;4.43;;;3.60;;
20000;SDS011;10161;41.188;-8.642;2023-07-02T03:07:43;4.73;;;3.67;;
20000;SDS011;10161;41.188;-8.642;2023-07-02T03:10:10;5.37;;;3.60;;
20000;SDS011;10161;41.188;-8.642;2023-07-02T03:12:38;5.77;;;4.23;;
20000;SDS011;10161;41.188;-8.642;2023-07-02T03:15:06;4.50;;;3.73;;
20000;SDS011;10161;41.188;-8.642;2023-07-02T03:17:34;5.20;;;3.27;;
20000;SDS011;10161;41.188;-8.642;2023-07-02T03:20:02;4.73;;;3.57;;
20000;SDS011;10161;41.188;-8.642;2023-07-02T03:22:31;4.80;;;3.77;;
20000;SDS011;10161;41.188;-8.642;2023-07-02T03:24:58;6.17;;;4.10;;
20000;SDS011;10161;41.188;-8.642;2023-07-02T03:27:26;4.67;;;3.70;;
20000;SDS011;10161;41.188;-8.642;2023-07-02T03:29:53;4.33;;;3.50;;
20000;SDS011;10161;41.188;-8.642;2023-07-02T03:32:21;4.87;;;3.40;;
20000;SDS011;10161;41.188;-8.642;2023-07-02T03:34:49;5.33;;;3.57;;
20000;SDS011;10161;41.188;-8.642;2023-07-02T03:37:18;5.17;;;3.20;;
20000;SDS011;10161;41.188;-8.642;2023-07-02T03:39:46;5.77;;;3.80;;
20000;SDS011;10161;41.188;-8.642;2023-07-02T03:42:13;4.93;;;3.47;;
20000;SDS011;10161;41.188;-8.642;2023-07-02T03:44:40;4.10;;;3.60;;
20000;SDS011;10161;41.188;-8.642;2023-07-02T03:47:08;5.33;;;3.80;;
20000;SDS011;10161;41.188;-8.642;2023-07-02T03:49:37;5.97;;;4.20;;
20000;SDS011;10161;41.188;-8.642;2023-07-02T03:52:04;6.10;;;3.70;;
20000;SDS011;10161;41.188;-8.642;2023-07-02T03:54:33;6.10;;;4.20;;
20000;SDS011;10161;41.188;-8.642;2023-07-02T03:57:02;6.10;;;3.90;;
20000;SDS011;10161;41.188;-8.642;2023-07-02T03:59:30;4.67;;;3.70;;
20000;SDS011;10161;41.188;-8.642;2023-07-02T04:01:56;5.33;;;3.87;;
20000;SDS011;10161;41.188;-8.642;2023-07-02T04:04:24;5.60;;;3.60;;
20000;SDS011;10161;41.188;-8.642;2023-07-02T04:06:50;4.90;;;3.50;;
20000;SDS011;10161;41.188;-8.642;2023-07-02T04:09:17;4.77;;;3.83;;
20000;SDS011;10161;41.188;-8.642;2023-07-02T04:11:45;5.93;;;3.90;;
20000;SDS011;10161;41.188;-8.642;2023-07-02T04:14:14;5.03;;;3.90;;
20000;SDS011;10161;41.188;-8.642;2023-07-02T04:16:42;6.70;;;4.70;;
20000;SDS011;10161;41.188;-8.642;2023-07-02T04:19:10;6.97;;;4.30;;
20000;SDS011;10161;41.188;-8.642;2023-07-02T04:21:38;5.67;;;3.83;;
20000;SDS011;10161;41.188;-8.642;2023-07-02T04:24:05;5.83;;;3.80;;
20000;SDS011;10161;41.188;-8.642;2023-07-02T04:26:32;5.20;;;3.53;;
20000;SDS011;10161;41.188;-8.642;2023-07-02T04:28:59;4.87;;;3.70;;
20000;SDS011;10161;41.188;-8.642;2023-07-02T04:31:28;4.97;;;3.70;;
20000;SDS011;10161;41.188;-8.642;2023-07-02T04:33:55;4.30;;;3.67;;
20000;SDS011;10161;41.188;-8.642;2023-07-02T04:36:23;5.77;;;3.47;;
20000;SDS011;10161;41.188;-8.642;2023-07-02T04:38:50;5.63;;;3.70;;
20000;SDS011;10161;41.188;-8.642;2023-07-02T04:41:17;4.80;;;3.63;;
20000;SDS011;10161;41.188;-8.642;2023-07-02T04:43:44;5.23;;;3.70;;
20000;SDS011;10161;41.188;-8.642;2023-07-02T04:46:11;7.53;;;3.50;;
20000;SDS011;10161;41.188;-8.642;2023-07-02T04:48:40;4.87;;;3.67;;
20000;SDS011;10161;41.188;-8.642;2023-07-02T04:51:07;4.70;;;3.63;;
20000;SDS011;10161;41.188;-8.642;2023-07-02T04:53:34;5.03;;;3.60;;
20000;SDS011;10161;41.188;-8.642;2023-07-02T04:56:03;6.60;;;3.40;;
20000;SDS011;10161;41.188;-8.642;2023-07-02T04:58:30;4.03;;;3.30;;
20000;SDS011;10161;41.188;-8.642;2023-07-02T05:00:57;5.37;;;3.90;;
20000;SDS011;10161;41.188;-8.642;2023-07-02T05:03:24;5.70;;;3.70;;
20000;SDS011;10161;41.188;-8.642;2023-07-02T05:05:55;6.93;;;4.13;;
20000;SDS011;10161;41.188;-8.642;2023-07-02T05:08:23;5.97;;;4.00;;
20000;SDS011;10161;41.188;-8.642;2023-07-02T05:10:51;5.27;;;4.00;;
20000;SDS011;10161;41.188;-8.642;2023-07-02T05:13:18;5.43;;;4.00;;
20000;SDS011;10161;41.188;-8.642;2023-07-02T05:15:45;3.53;;;3.20;;
20000;SDS011;10161;41.188;-8.642;2023-07-02T05:18:12;4.17;;;3.23;;
20000;SDS011;10161;41.188;-8.642;2023-07-02T05:20:39;4.53;;;3.30;;
20000;SDS011;10161;41.188;-8.642;2023-07-02T05:23:09;4.40;;;3.53;;
20000;SDS011;10161;41.188;-8.642;2023-07-02T05:25:36;4.10;;;3.17;;
20000;SDS011;10161;41.188;-8.642;2023-07-02T05:28:04;4.33;;;3.43;;
20000;SDS011;10161;41.188;-8.642;2023-07-02T05:30:31;5.43;;;3.83;;
20000;SDS011;10161;41.188;-8.642;2023-07-02T05:32:58;3.70;;;3.17;;
20000;SDS011;10161;41.188;-8.642;2023-07-02T05:35:25;5.40;;;4.17;;
20000;SDS011;10161;41.188;-8.642;2023-07-02T05:37:52;3.77;;;3.33;;
20000;SDS011;10161;41.188;-8.642;2023-07-02T05:40:21;4.70;;;3.67;;
20000;SDS011;10161;41.188;-8.642;2023-07-02T05:42:48;5.83;;;3.70;;
20000;SDS011;10161;41.188;-8.642;2023-07-02T05:45:15;4.33;;;3.60;;
20000;SDS011;10161;41.188;-8.642;2023-07-02T05:47:42;5.87;;;3.93;;
20000;SDS011;10161;41.188;-8.642;2023-07-02T05:50:09;4.23;;;3.77;;
20000;SDS011;10161;41.188;-8.642;2023-07-02T05:52:36;4.70;;;3.90;;
20000;SDS011;10161;41.188;-8.642;2023-07-02T05:55:04;6.43;;;3.87;;
20000;SDS011;10161;41.188;-8.642;2023-07-02T05:57:37;4.23;;;3.70;;
20000;SDS011;10161;41.188;-8.642;2023-07-02T06:00:05;3.87;;;3.50;;
20000;SDS011;10161;41.188;-8.642;2023-07-02T06:02:33;4.57;;;3.60;;
20000;SDS011;10161;41.188;-8.642;2023-07-02T06:05:00;5.43;;;3.90;;
20000;SDS011;10161;41.188;-8.642;2023-07-02T06:07:29;4.47;;;3.60;;
20000;SDS011;10161;41.188;-8.642;2023-07-02T06:09:56;4.07;;;3.40;;
20000;SDS011;10161;41.188;-8.642;2023-07-02T06:12:23;3.87;;;3.50;;
20000;SDS011;10161;41.188;-8.642;2023-07-02T06:14:51;6.17;;;4.27;;
20000;SDS011;10161;41.188;-8.642;2023-07-02T06:17:18;5.40;;;4.40;;
20000;SDS011;10161;41.188;-8.642;2023-07-02T06:19:49;4.83;;;3.97;;
20000;SDS011;10161;41.188;-8.642;2023-07-02T06:22:17;5.00;;;4.03;;
20000;SDS011;10161;41.188;-8.642;2023-07-02T06:24:44;4.40;;;3.80;;
20000;SDS011;10161;41.188;-8.642;2023-07-02T06:27:11;4.97;;;3.67;;
20000;SDS011;10161;41.188;-8.642;2023-07-02T06:29:39;4.53;;;3.87;;
20000;SDS011;10161;41.188;-8.642;2023-07-02T06:32:08;6.07;;;4.13;;
20000;SDS011;10161;41.188;-8.642;2023-07-02T06:34:35;5.23;;;3.90;;
20000;SDS011;10161;41.188;-8.642;2023-07-02T06:37:02;4.80;;;3.67;;
20000;SDS011;10161;41.188;-8.642;2023-07-02T06:39:30;5.50;;;3.80;;
20000;SDS011;10161;41.188;-8.642;2023-07-02T06:41:57;4.93;;;4.40;;
20000;SDS011;10161;41.188;-8.642;2023-07-02T06:44:25;4.30;;;3.90;;
20000;SDS011;10161;41.188;-8.642;2023-07-02T06:46:53;4.77;;;4.10;;
20000;SDS011;10161;41.188;-8.642;2023-07-02T06:49:22;5.27;;;4.10;;
20000;SDS011;10161;41.188;-8.642;2023-07-02T06:51:49;5.77;;;3.83;;
20000;SDS011;10161;41.188;-8.642;2023-07-02T06:54:16;3.57;;;3.23;;
20000;SDS011;10161;41.188;-8.642;2023-07-02T06:56:43;4.17;;;3.43;;
20000;SDS011;10161;41.188;-8.642;2023-07-02T06:59:10;3.70;;;3.30;;
20000;SDS011;10161;41.188;-8.642;2023-07-02T07:01:38;4.13;;;3.73;;
20000;SDS011;10161;41.188;-8.642;2023-07-02T07:04:06;5.33;;;4.60;;
20000;SDS011;10161;41.188;-8.642;2023-07-02T07:06:35;6.10;;;4.30;;
20000;SDS011;10161;41.188;-8.642;2023-07-02T07:09:02;4.83;;;3.87;;
20000;SDS011;10161;41.188;-8.642;2023-07-02T07:11:29;4.40;;;3.57;;
20000;SDS011;10161;41.188;-8.642;2023-07-02T07:13:56;4.20;;;3.80;;
20000;SDS011;10161;41.188;-8.642;2023-07-02T07:16:23;3.67;;;3.37;;
20000;SDS011;10161;41.188;-8.642;2023-07-02T07:18:51;4.23;;;3.83;;
20000;SDS011;10161;41.188;-8.642;2023-07-02T07:21:18;4.93;;;4.13;;
20000;SDS011;10161;41.188;-8.642;2023-07-02T07:23:47;3.97;;;3.47;;
20000;SDS011;10161;41.188;-8.642;2023-07-02T07:26:14;3.80;;;3.40;;
20000;SDS011;10161;41.188;-8.642;2023-07-02T07:28:42;4.57;;;4.17;;
20000;SDS011;10161;41.188;-8.642;2023-07-02T07:31:09;4.50;;;3.60;;
20000;SDS011;10161;41.188;-8.642;2023-07-02T07:33:38;4.33;;;3.93;;
20000;SDS011;10161;41.188;-8.642;2023-07-02T07:36:05;9.93;;;5.37;;
20000;SDS011;10161;41.188;-8.642;2023-07-02T07:38:31;17.43;;;8.13;;
20000;SDS011;10161;41.188;-8.642;2023-07-02T07:41:01;16.80;;;9.17;;
20000;SDS011;10161;41.188;-8.642;2023-07-02T07:43:28;16.33;;;9.93;;
20000;SDS011;10161;41.188;-8.642;2023-07-02T07:45:56;17.07;;;9.23;;
20000;SDS011;10161;41.188;-8.642;2023-07-02T07:48:25;14.77;;;8.90;;
20000;SDS011;10161;41.188;-8.642;2023-07-02T07:50:55;17.50;;;10.03;;
20000;SDS011;10161;41.188;-8.642;2023-07-02T07:53:22;13.63;;;8.77;;
20000;SDS011;10161;41.188;-8.642;2023-07-02T07:55:49;16.80;;;9.63;;
20000;SDS011;10161;41.188;-8.642;2023-07-02T07:58:25;15.83;;;9.23;;
20000;SDS011;10161;41.188;-8.642;2023-07-02T08:00:52;17.53;;;9.47;;
20000;SDS011;10161;41.188;-8.642;2023-07-02T08:03:20;19.70;;;9.07;;
20000;SDS011;10161;41.188;-8.642;2023-07-02T08:05:47;14.23;;;8.37;;
20000;SDS011;10161;41.188;-8.642;2023-07-02T08:08:14;12.13;;;7.80;;
20000;SDS011;10161;41.188;-8.642;2023-07-02T08:10:42;13.77;;;7.97;;
20000;SDS011;10161;41.188;-8.642;2023-07-02T08:13:10;12.63;;;8.30;;
20000;SDS011;10161;41.188;-8.642;2023-07-02T08:15:40;15.87;;;9.17;;
20000;SDS011;10161;41.188;-8.642;2023-07-02T08:18:08;15.57;;;8.23;;
20000;SDS011;10161;41.188;-8.642;2023-07-02T08:20:37;15.20;;;8.63;;
20000;SDS011;10161;41.188;-8.642;2023-07-02T08:23:05;15.43;;;8.23;;
20000;SDS011;10161;41.188;-8.642;2023-07-02T08:25:34;15.33;;;8.10;;
20000;SDS011;10161;41.188;-8.642;2023-07-02T08:28:00;19.37;;;10.13;;
20000;SDS011;10161;41.188;-8.642;2023-07-02T08:30:27;13.63;;;9.10;;
20000;SDS011;10161;41.188;-8.642;2023-07-02T08:32:56;18.37;;;9.30;;
20000;SDS011;10161;41.188;-8.642;2023-07-02T08:35:23;18.07;;;9.80;;
20000;SDS011;10161;41.188;-8.642;2023-07-02T08:37:50;19.77;;;10.57;;
20000;SDS011;10161;41.188;-8.642;2023-07-02T08:40:17;17.80;;;10.87;;
20000;SDS011;10161;41.188;-8.642;2023-07-02T08:42:46;18.60;;;10.00;;
20000;SDS011;10161;41.188;-8.642;2023-07-02T08:45:13;18.43;;;10.30;;
20000;SDS011;10161;41.188;-8.642;2023-07-02T08:47:41;16.60;;;9.17;;
20000;SDS011;10161;41.188;-8.642;2023-07-02T08:50:11;15.80;;;9.67;;
20000;SDS011;10161;41.188;-8.642;2023-07-02T08:52:38;16.80;;;9.67;;
20000;SDS011;10161;41.188;-8.642;2023-07-02T08:55:06;15.43;;;8.50;;
20000;SDS011;10161;41.188;-8.642;2023-07-02T08:57:34;13.03;;;7.97;;
20000;SDS011;10161;41.188;-8.642;2023-07-02T09:00:04;16.20;;;7.93;;
20000;SDS011;10161;41.188;-8.642;2023-07-02T09:02:34;15.03;;;8.90;;
20000;SDS011;10161;41.188;-8.642;2023-07-02T09:05:02;12.70;;;8.30;;
20000;SDS011;10161;41.188;-8.642;2023-07-02T09:07:42;17.27;;;8.17;;
20000;SDS011;10161;41.188;-8.642;2023-07-02T09:10:10;14.03;;;7.60;;
20000;SDS011;10161;41.188;-8.642;2023-07-02T09:12:37;12.83;;;7.93;;
20000;SDS011;10161;41.188;-8.642;2023-07-02T09:15:06;13.43;;;7.40;;
20000;SDS011;10161;41.188;-8.642;2023-07-02T09:17:34;15.93;;;7.87;;
20000;SDS011;10161;41.188;-8.642;2023-07-02T09:20:03;13.07;;;7.90;;
20000;SDS011;10161;41.188;-8.642;2023-07-02T09:22:35;15.63;;;8.37;;
20000;SDS011;10161;41.188;-8.642;2023-07-02T09:25:04;12.77;;;7.37;;
20000;SDS011;10161;41.188;-8.642;2023-07-02T09:27:34;13.63;;;8.80;;
20000;SDS011;10161;41.188;-8.642;2023-07-02T09:30:07;19.50;;;8.23;;
20000;SDS011;10161;41.188;-8.642;2023-07-02T09:32:35;17.93;;;7.50;;
20000;SDS011;10161;41.188;-8.642;2023-07-02T09:35:03;12.03;;;8.60;;
20000;SDS011;10161;41.188;-8.642;2023-07-02T09:37:31;13.10;;;7.20;;
20000;SDS011;10161;41.188;-8.642;2023-07-02T09:40:00;14.60;;;7.77;;
20000;SDS011;10161;41.188;-8.642;2023-07-02T09:42:31;13.10;;;7.10;;
20000;SDS011;10161;41.188;-8.642;2023-07-02T09:44:59;13.80;;;7.73;;
20000;SDS011;10161;41.188;-8.642;2023-07-02T09:47:29;14.47;;;7.87;;
20000;SDS011;10161;41.188;-8.642;2023-07-02T09:49:58;12.30;;;6.57;;
20000;SDS011;10161;41.188;-8.642;2023-07-02T09:52:30;11.27;;;5.70;;
20000;SDS011;10161;41.188;-8.642;2023-07-02T09:54:59;9.43;;;5.63;;
20000;SDS011;10161;41.188;-8.642;2023-07-02T09:57:27;7.90;;;6.20;;
20000;SDS011;10161;41.188;-8.642;2023-07-02T09:59:56;8.07;;;5.33;;
20000;SDS011;10161;41.188;-8.642;2023-07-02T10:02:23;7.40;;;5.10;;
20000;SDS011;10161;41.188;-8.642;2023-07-02T10:04:51;8.23;;;4.30;;
20000;SDS011;10161;41.188;-8.642;2023-07-02T10:07:25;8.73;;;4.43;;
20000;SDS011;10161;41.188;-8.642;2023-07-02T10:10:02;5.93;;;4.57;;
20000;SDS011;10161;41.188;-8.642;2023-07-02T10:12:29;6.60;;;4.30;;
20000;SDS011;10161;41.188;-8.642;2023-07-02T10:14:57;7.37;;;4.20;;
20000;SDS011;10161;41.188;-8.642;2023-07-02T10:17:26;7.00;;;3.73;;
20000;SDS011;10161;41.188;-8.642;2023-07-02T10:19:54;6.07;;;3.70;;
20000;SDS011;10161;41.188;-8.642;2023-07-02T10:22:22;7.07;;;4.20;;
20000;SDS011;10161;41.188;-8.642;2023-07-02T10:24:56;7.80;;;3.70;;
20000;SDS011;10161;41.188;-8.642;2023-07-02T10:27:37;4.60;;;3.90;;
20000;SDS011;10161;41.188;-8.642;2023-07-02T10:30:04;8.30;;;3.33;;
20000;SDS011;10161;41.188;-8.642;2023-07-02T10:32:32;6.90;;;4.73;;
20000;SDS011;10161;41.188;-8.642;2023-07-02T10:35:00;6.93;;;3.83;;
20000;SDS011;10161;41.188;-8.642;2023-07-02T10:37:38;4.37;;;3.43;;
20000;SDS011;10161;41.188;-8.642;2023-07-02T10:40:06;6.63;;;3.93;;
20000;SDS011;10161;41.188;-8.642;2023-07-02T10:42:46;4.63;;;3.80;;
20000;SDS011;10161;41.188;-8.642;2023-07-02T10:45:13;9.83;;;3.60;;
20000;SDS011;10161;41.188;-8.642;2023-07-02T10:47:40;4.73;;;3.40;;
20000;SDS011;10161;41.188;-8.642;2023-07-02T10:50:17;4.87;;;3.33;;
20000;SDS011;10161;41.188;-8.642;2023-07-02T10:52:46;4.80;;;3.93;;
20000;SDS011;10161;41.188;-8.642;2023-07-02T10:55:19;5.30;;;4.07;;
20000;SDS011;10161;41.188;-8.642;2023-07-02T10:57:49;4.23;;;3.17;;
20000;SDS011;10161;41.188;-8.642;2023-07-02T11:00:17;4.90;;;3.43;;
20000;SDS011;10161;41.188;-8.642;2023-07-02T11:02:45;4.80;;;3.43;;
20000;SDS011;10161;41.188;-8.642;2023-07-02T11:05:12;4.50;;;3.20;;
20000;SDS011;10161;41.188;-8.642;2023-07-02T11:07:39;4.63;;;3.20;;
20000;SDS011;10161;41.188;-8.642;2023-07-02T11:10:07;5.60;;;3.30;;
20000;SDS011;10161;41.188;-8.642;2023-07-02T11:12:35;4.43;;;3.70;;
20000;SDS011;10161;41.188;-8.642;2023-07-02T11:15:10;3.20;;;2.90;;
20000;SDS011;10161;41.188;-8.642;2023-07-02T11:17:38;4.60;;;3.50;;
20000;SDS011;10161;41.188;-8.642;2023-07-02T11:20:07;3.80;;;3.40;;
20000;SDS011;10161;41.188;-8.642;2023-07-02T11:22:35;4.40;;;3.33;;
20000;SDS011;10161;41.188;-8.642;2023-07-02T11:25:12;4.53;;;3.20;;
20000;SDS011;10161;41.188;-8.642;2023-07-02T11:27:40;4.43;;;3.47;;
20000;SDS011;10161;41.188;-8.642;2023-07-02T11:30:07;4.03;;;3.40;;
20000;SDS011;10161;41.188;-8.642;2023-07-02T11:32:46;5.03;;;3.10;;
20000;SDS011;10161;41.188;-8.642;2023-07-02T11:35:16;5.60;;;3.30;;
20000;SDS011;10161;41.188;-8.642;2023-07-02T11:37:43;4.13;;;2.60;;
20000;SDS011;10161;41.188;-8.642;2023-07-02T11:40:11;3.30;;;3.00;;
20000;SDS011;10161;41.188;-8.642;2023-07-02T11:42:38;3.93;;;2.87;;
20000;SDS011;10161;41.188;-8.642;2023-07-02T11:45:06;4.27;;;2.77;;
20000;SDS011;10161;41.188;-8.642;2023-07-02T11:47:34;2.93;;;2.63;;
20000;SDS011;10161;41.188;-8.642;2023-07-02T11:50:03;3.87;;;2.70;;
20000;SDS011;10161;41.188;-8.642;2023-07-02T11:52:30;4.03;;;3.03;;
20000;SDS011;10161;41.188;-8.642;2023-07-02T11:54:57;3.43;;;2.80;;
20000;SDS011;10161;41.188;-8.642;2023-07-02T11:57:24;5.03;;;3.00;;
20000;SDS011;10161;41.188;-8.642;2023-07-02T11:59:51;4.10;;;3.23;;
20000;SDS011;10161;41.188;-8.642;2023-07-02T12:02:18;3.17;;;2.87;;
20000;SDS011;10161;41.188;-8.642;2023-07-02T12:04:45;4.57;;;3.37;;
20000;SDS011;10161;41.188;-8.642;2023-07-02T12:07:14;3.40;;;2.97;;
20000;SDS011;10161;41.188;-8.642;2023-07-02T12:09:41;3.70;;;3.00;;
20000;SDS011;10161;41.188;-8.642;2023-07-02T12:12:08;4.17;;;2.90;;
20000;SDS011;10161;41.188;-8.642;2023-07-02T12:14:35;3.80;;;3.27;;
20000;SDS011;10161;41.188;-8.642;2023-07-02T12:17:02;5.50;;;3.03;;
20000;SDS011;10161;41.188;-8.642;2023-07-02T12:19:29;3.10;;;2.90;;
20000;SDS011;10161;41.188;-8.642;2023-07-02T12:21:56;3.60;;;2.90;;
20000;SDS011;10161;41.188;-8.642;2023-07-02T12:24:25;3.47;;;2.93;;
20000;SDS011;10161;41.188;-8.642;2023-07-02T12:26:52;3.27;;;2.97;;
20000;SDS011;10161;41.188;-8.642;2023-07-02T12:29:19;3.17;;;2.90;;
20000;SDS011;10161;41.188;-8.642;2023-07-02T12:31:46;3.57;;;2.93;;
20000;SDS011;10161;41.188;-8.642;2023-07-02T12:34:13;3.30;;;2.80;;
20000;SDS011;10161;41.188;-8.642;2023-07-02T12:36:40;3.80;;;3.37;;
20000;SDS011;10161;41.188;-8.642;2023-07-02T12:39:07;3.50;;;2.80;;
20000;SDS011;10161;41.188;-8.642;2023-07-02T12:41:35;3.10;;;2.80;;
20000;SDS011;10161;41.188;-8.642;2023-07-02T12:44:02;3.27;;;2.70;;
20000;SDS011;10161;41.188;-8.642;2023-07-02T12:46:29;4.10;;;3.10;;
20000;SDS011;10161;41.188;-8.642;2023-07-02T12:48:56;2.97;;;2.77;;
20000;SDS011;10161;41.188;-8.642;2023-07-02T12:51:23;3.30;;;2.57;;
20000;SDS011;10161;41.188;-8.642;2023-07-02T12:53:50;3.70;;;3.03;;
20000;SDS011;10161;41.188;-8.642;2023-07-02T12:56:17;4.13;;;3.10;;
20000;SDS011;10161;41.188;-8.642;2023-07-02T12:58:45;4.00;;;3.47;;
20000;SDS011;10161;41.188;-8.642;2023-07-02T13:01:12;3.40;;;3.10;;
20000;SDS011;10161;41.188;-8.642;2023-07-02T13:03:44;4.00;;;3.70;;
20000;SDS011;10161;41.188;-8.642;2023-07-02T13:06:11;4.70;;;3.90;;
20000;SDS011;10161;41.188;-8.642;2023-07-02T13:08:38;4.43;;;3.77;;
20000;SDS011;10161;41.188;-8.642;2023-07-02T13:11:05;4.70;;;3.67;;
20000;SDS011;10161;41.188;-8.642;2023-07-02T13:13:33;4.13;;;3.73;;
20000;SDS011;10161;41.188;-8.642;2023-07-02T13:16:02;4.47;;;3.40;;
20000;SDS011;10161;41.188;-8.642;2023-07-02T13:18:29;5.00;;;3.73;;
20000;SDS011;10161;41.188;-8.642;2023-07-02T13:20:56;3.10;;;2.80;;
20000;SDS011;10161;41.188;-8.642;2023-07-02T13:23:23;3.60;;;3.30;;
20000;SDS011;10161;41.188;-8.642;2023-07-02T13:25:50;2.70;;;2.50;;
20000;SDS011;10161;41.188;-8.642;2023-07-02T13:28:17;4.37;;;2.83;;
20000;SDS011;10161;41.188;-8.642;2023-07-02T13:30:46;2.93;;;2.63;;
20000;SDS011;10161;41.188;-8.642;2023-07-02T13:33:14;2.67;;;2.47;;
20000;SDS011;10161;41.188;-8.642;2023-07-02T13:35:41;2.90;;;2.57;;
20000;SDS011;10161;41.188;-8.642;2023-07-02T13:38:09;3.60;;;2.90;;
20000;SDS011;10161;41.188;-8.642;2023-07-02T13:40:36;4.43;;;2.80;;
20000;SDS011;10161;41.188;-8.642;2023-07-02T13:43:03;5.50;;;2.77;;
20000;SDS011;10161;41.188;-8.642;2023-07-02T13:45:29;2.87;;;2.57;;
20000;SDS011;10161;41.188;-8.642;2023-07-02T13:47:57;3.40;;;2.30;;
20000;SDS011;10161;41.188;-8.642;2023-07-02T13:50:25;4.87;;;2.40;;
20000;SDS011;10161;41.188;-8.642;2023-07-02T13:52:52;2.93;;;2.53;;
20000;SDS011;10161;41.188;-8.642;2023-07-02T13:55:19;2.83;;;2.53;;
20000;SDS011;10161;41.188;-8.642;2023-07-02T13:57:51;3.63;;;2.50;;
20000;SDS011;10161;41.188;-8.642;2023-07-02T14:00:21;2.40;;;2.20;;
20000;SDS011;10161;41.188;-8.642;2023-07-02T14:02:48;3.10;;;2.40;;
20000;SDS011;10161;41.188;-8.642;2023-07-02T14:05:15;2.47;;;2.27;;
20000;SDS011;10161;41.188;-8.642;2023-07-02T14:07:42;3.97;;;2.40;;
20000;SDS011;10161;41.188;-8.642;2023-07-02T14:10:09;3.53;;;1.93;;
20000;SDS011;10161;41.188;-8.642;2023-07-02T14:12:37;2.73;;;2.20;;
20000;SDS011;10161;41.188;-8.642;2023-07-02T14:15:04;2.53;;;2.20;;
20000;SDS011;10161;41.188;-8.642;2023-07-02T14:17:33;2.60;;;2.00;;
20000;SDS011;10161;41.188;-8.642;2023-07-02T14:20:01;4.37;;;1.90;;
20000;SDS011;10161;41.188;-8.642;2023-07-02T14:22:28;3.80;;;2.20;;
20000;SDS011;10161;41.188;-8.642;2023-07-02T14:24:55;2.90;;;2.17;;
20000;SDS011;10161;41.188;-8.642;2023-07-02T14:27:22;2.63;;;2.20;;
20000;SDS011;10161;41.188;-8.642;2023-07-02T14:29:49;2.03;;;1.80;;
20000;SDS011;10161;41.188;-8.642;2023-07-02T14:32:17;2.63;;;2.17;;
20000;SDS011;10161;41.188;-8.642;2023-07-02T14:34:45;2.70;;;2.17;;
20000;SDS011;10161;41.188;-8.642;2023-07-02T14:37:12;2.57;;;2.20;;